sensor_id;sensor_type;location;lat;lon;timestamp;P1;durP1;ratioP1;P2;durP2;ratioP2
12367;SDS011;6248;49.812;6.620;2023-04-01T00:01:30;3.17;;;1.30;;
12367;SDS011;6248;49.812;6.620;2023-04-01T00:03:57;3.43;;;1.37;;
12367;SDS011;6248;49.812;6.620;2023-04-01T00:06:27;3.97;;;1.50;;
12367;SDS011;6248;49.812;6.620;2023-04-01T00:08:54;4.23;;;1.33;;
12367;SDS011;6248;49.812;6.620;2023-04-01T00:11:23;3.67;;;1.20;;
12367;SDS011;6248;49.812;6.620;2023-04-01T00:13:52;2.87;;;1.20;;
12367;SDS011;6248;49.812;6.620;2023-04-01T00:16:19;2.90;;;1.30;;
12367;SDS011;6248;49.812;6.620;2023-04-01T00:18:46;4.00;;;1.10;;
12367;SDS011;6248;49.812;6.620;2023-04-01T00:21:14;4.70;;;1.37;;
12367;SDS011;6248;49.812;6.620;2023-04-01T00:23:41;3.80;;;1.20;;
12367;SDS011;6248;49.812;6.620;2023-04-01T00:26:08;3.13;;;1.23;;
12367;SDS011;6248;49.812;6.620;2023-04-01T00:28:38;4.73;;;1.07;;
12367;SDS011;6248;49.812;6.620;2023-04-01T00:31:05;2.83;;;1.07;;
12367;SDS011;6248;49.812;6.620;2023-04-01T00:33:32;4.53;;;1.20;;
12367;SDS011;6248;49.812;6.620;2023-04-01T00:36:07;3.27;;;1.10;;
12367;SDS011;6248;49.812;6.620;2023-04-01T00:38:34;3.67;;;0.90;;
12367;SDS011;6248;49.812;6.620;2023-04-01T00:41:02;3.03;;;1.13;;
12367;SDS011;6248;49.812;6.620;2023-04-01T00:43:29;3.90;;;1.33;;
12367;SDS011;6248;49.812;6.620;2023-04-01T00:45:58;3.67;;;1.20;;
12367;SDS011;6248;49.812;6.620;2023-04-01T00:48:26;2.30;;;1.00;;
12367;SDS011;6248;49.812;6.620;2023-04-01T00:50:56;4.43;;;1.43;;
12367;SDS011;6248;49.812;6.620;2023-04-01T00:53:24;3.60;;;1.20;;
12367;SDS011;6248;49.812;6.620;2023-04-01T00:55:53;3.20;;;1.13;;
12367;SDS011;6248;49.812;6.620;2023-04-01T00:58:23;5.23;;;1.20;;
12367;SDS011;6248;49.812;6.620;2023-04-01T01:00:51;4.60;;;1.40;;
12367;SDS011;6248;49.812;6.620;2023-04-01T01:03:19;3.87;;;1.17;;
12367;SDS011;6248;49.812;6.620;2023-04-01T01:05:54;3.93;;;1.50;;
12367;SDS011;6248;49.812;6.620;2023-04-01T01:08:28;3.67;;;1.20;;
12367;SDS011;6248;49.812;6.620;2023-04-01T01:10:56;2.80;;;1.33;;
12367;SDS011;6248;49.812;6.620;2023-04-01T01:13:24;2.80;;;1.40;;
12367;SDS011;6248;49.812;6.620;2023-04-01T01:15:54;7.37;;;1.27;;
12367;SDS011;6248;49.812;6.620;2023-04-01T01:18:26;5.53;;;1.40;;
12367;SDS011;6248;49.812;6.620;2023-04-01T01:21:02;3.87;;;1.20;;
12367;SDS011;6248;49.812;6.620;2023-04-01T01:23:46;4.47;;;1.50;;
12367;SDS011;6248;49.812;6.620;2023-04-01T01:29:01;2.70;;;1.20;;
12367;SDS011;6248;49.812;6.620;2023-04-01T01:31:33;2.93;;;1.40;;
12367;SDS011;6248;49.812;6.620;2023-04-01T01:34:02;7.10;;;2.03;;
12367;SDS011;6248;49.812;6.620;2023-04-01T01:36:34;3.43;;;1.10;;
12367;SDS011;6248;49.812;6.620;2023-04-01T01:39:04;4.17;;;1.30;;
12367;SDS011;6248;49.812;6.620;2023-04-01T01:41:32;3.53;;;1.10;;
12367;SDS011;6248;49.812;6.620;2023-04-01T01:44:00;3.87;;;1.40;;
12367;SDS011;6248;49.812;6.620;2023-04-01T01:46:29;2.80;;;1.10;;
12367;SDS011;6248;49.812;6.620;2023-04-01T01:48:57;3.40;;;1.30;;
12367;SDS011;6248;49.812;6.620;2023-04-01T01:51:25;3.43;;;1.03;;
12367;SDS011;6248;49.812;6.620;2023-04-01T01:53:55;6.50;;;1.57;;
12367;SDS011;6248;49.812;6.620;2023-04-01T01:56:23;3.07;;;1.13;;
12367;SDS011;6248;49.812;6.620;2023-04-01T01:58:52;4.27;;;1.30;;
12367;SDS011;6248;49.812;6.620;2023-04-01T02:01:21;5.13;;;1.27;;
12367;SDS011;6248;49.812;6.620;2023-04-01T02:03:50;5.53;;;1.50;;
12367;SDS011;6248;49.812;6.620;2023-04-01T02:06:19;4.30;;;1.30;;
12367;SDS011;6248;49.812;6.620;2023-04-01T02:08:49;2.10;;;1.17;;
12367;SDS011;6248;49.812;6.620;2023-04-01T02:11:20;4.50;;;1.43;;
12367;SDS011;6248;49.812;6.620;2023-04-01T02:13:51;3.27;;;1.20;;
12367;SDS011;6248;49.812;6.620;2023-04-01T02:16:20;3.63;;;1.50;;
12367;SDS011;6248;49.812;6.620;2023-04-01T02:18:49;6.20;;;1.47;;
12367;SDS011;6248;49.812;6.620;2023-04-01T02:21:18;5.67;;;1.43;;
12367;SDS011;6248;49.812;6.620;2023-04-01T02:23:46;5.90;;;1.47;;
12367;SDS011;6248;49.812;6.620;2023-04-01T02:26:13;5.77;;;1.40;;
12367;SDS011;6248;49.812;6.620;2023-04-01T02:28:42;4.90;;;1.20;;
12367;SDS011;6248;49.812;6.620;2023-04-01T02:31:10;3.40;;;1.30;;
12367;SDS011;6248;49.812;6.620;2023-04-01T02:33:38;2.83;;;1.00;;
12367;SDS011;6248;49.812;6.620;2023-04-01T02:36:05;2.03;;;1.00;;
12367;SDS011;6248;49.812;6.620;2023-04-01T02:38:32;2.93;;;1.57;;
12367;SDS011;6248;49.812;6.620;2023-04-01T02:41:02;4.70;;;1.27;;
12367;SDS011;6248;49.812;6.620;2023-04-01T02:43:30;4.20;;;1.03;;
12367;SDS011;6248;49.812;6.620;2023-04-01T02:45:58;4.37;;;1.17;;
12367;SDS011;6248;49.812;6.620;2023-04-01T02:48:26;4.00;;;1.50;;
12367;SDS011;6248;49.812;6.620;2023-04-01T02:50:53;4.17;;;1.27;;
12367;SDS011;6248;49.812;6.620;2023-04-01T02:53:21;3.83;;;1.30;;
12367;SDS011;6248;49.812;6.620;2023-04-01T02:55:48;4.70;;;1.20;;
12367;SDS011;6248;49.812;6.620;2023-04-01T02:58:16;4.70;;;1.20;;
12367;SDS011;6248;49.812;6.620;2023-04-01T03:00:44;5.43;;;1.30;;
12367;SDS011;6248;49.812;6.620;2023-04-01T03:03:12;3.60;;;1.50;;
12367;SDS011;6248;49.812;6.620;2023-04-01T03:05:39;4.43;;;1.20;;
12367;SDS011;6248;49.812;6.620;2023-04-01T03:08:06;4.07;;;1.27;;
12367;SDS011;6248;49.812;6.620;2023-04-01T03:10:34;3.30;;;1.50;;
12367;SDS011;6248;49.812;6.620;2023-04-01T03:13:01;2.33;;;1.20;;
12367;SDS011;6248;49.812;6.620;2023-04-01T03:15:28;4.10;;;1.03;;
12367;SDS011;6248;49.812;6.620;2023-04-01T03:17:55;3.57;;;1.30;;
12367;SDS011;6248;49.812;6.620;2023-04-01T03:20:23;2.40;;;1.50;;
12367;SDS011;6248;49.812;6.620;2023-04-01T03:22:50;2.60;;;1.53;;
12367;SDS011;6248;49.812;6.620;2023-04-01T03:25:18;3.93;;;1.53;;
12367;SDS011;6248;49.812;6.620;2023-04-01T03:27:45;2.63;;;1.20;;
12367;SDS011;6248;49.812;6.620;2023-04-01T03:30:12;2.53;;;1.40;;
12367;SDS011;6248;49.812;6.620;2023-04-01T03:32:39;3.03;;;1.50;;
12367;SDS011;6248;49.812;6.620;2023-04-01T03:35:06;3.23;;;1.30;;
12367;SDS011;6248;49.812;6.620;2023-04-01T03:37:36;6.47;;;1.70;;
12367;SDS011;6248;49.812;6.620;2023-04-01T03:40:03;3.43;;;1.30;;
12367;SDS011;6248;49.812;6.620;2023-04-01T03:42:31;3.63;;;1.10;;
12367;SDS011;6248;49.812;6.620;2023-04-01T03:44:58;2.93;;;1.10;;
12367;SDS011;6248;49.812;6.620;2023-04-01T03:47:25;4.27;;;1.27;;
12367;SDS011;6248;49.812;6.620;2023-04-01T03:49:52;3.53;;;1.13;;
12367;SDS011;6248;49.812;6.620;2023-04-01T03:52:19;3.03;;;1.20;;
12367;SDS011;6248;49.812;6.620;2023-04-01T03:54:48;3.43;;;1.13;;
12367;SDS011;6248;49.812;6.620;2023-04-01T03:57:15;2.33;;;0.90;;
12367;SDS011;6248;49.812;6.620;2023-04-01T03:59:42;1.77;;;0.93;;
12367;SDS011;6248;49.812;6.620;2023-04-01T04:02:09;3.70;;;1.40;;
12367;SDS011;6248;49.812;6.620;2023-04-01T04:04:36;2.60;;;1.30;;
12367;SDS011;6248;49.812;6.620;2023-04-01T04:07:04;2.60;;;1.77;;
12367;SDS011;6248;49.812;6.620;2023-04-01T04:09:31;3.70;;;1.40;;
12367;SDS011;6248;49.812;6.620;2023-04-01T04:12:00;3.53;;;1.23;;
12367;SDS011;6248;49.812;6.620;2023-04-01T04:14:27;3.07;;;1.23;;
12367;SDS011;6248;49.812;6.620;2023-04-01T04:16:54;3.63;;;1.13;;
12367;SDS011;6248;49.812;6.620;2023-04-01T04:19:21;2.83;;;1.20;;
12367;SDS011;6248;49.812;6.620;2023-04-01T04:21:48;3.30;;;1.17;;
12367;SDS011;6248;49.812;6.620;2023-04-01T04:24:15;3.00;;;1.17;;
12367;SDS011;6248;49.812;6.620;2023-04-01T04:26:42;3.07;;;0.83;;
12367;SDS011;6248;49.812;6.620;2023-04-01T04:29:11;1.67;;;0.77;;
12367;SDS011;6248;49.812;6.620;2023-04-01T04:31:38;3.00;;;1.10;;
12367;SDS011;6248;49.812;6.620;2023-04-01T04:34:05;2.60;;;1.13;;
12367;SDS011;6248;49.812;6.620;2023-04-01T04:36:32;3.13;;;0.90;;
12367;SDS011;6248;49.812;6.620;2023-04-01T04:38:59;2.07;;;0.80;;
12367;SDS011;6248;49.812;6.620;2023-04-01T04:41:28;2.10;;;0.83;;
12367;SDS011;6248;49.812;6.620;2023-04-01T04:43:55;2.83;;;0.80;;
12367;SDS011;6248;49.812;6.620;2023-04-01T04:46:25;2.00;;;0.90;;
12367;SDS011;6248;49.812;6.620;2023-04-01T04:48:52;2.50;;;0.80;;
12367;SDS011;6248;49.812;6.620;2023-04-01T04:51:19;2.33;;;0.97;;
12367;SDS011;6248;49.812;6.620;2023-04-01T04:53:47;2.13;;;0.70;;
12367;SDS011;6248;49.812;6.620;2023-04-01T04:56:17;2.30;;;0.77;;
12367;SDS011;6248;49.812;6.620;2023-04-01T04:58:45;3.30;;;0.83;;
12367;SDS011;6248;49.812;6.620;2023-04-01T05:01:12;1.53;;;0.70;;
12367;SDS011;6248;49.812;6.620;2023-04-01T05:03:41;1.97;;;0.80;;
12367;SDS011;6248;49.812;6.620;2023-04-01T05:06:09;1.33;;;0.50;;
12367;SDS011;6248;49.812;6.620;2023-04-01T05:08:36;2.57;;;0.60;;
12367;SDS011;6248;49.812;6.620;2023-04-01T05:11:06;1.47;;;0.80;;
12367;SDS011;6248;49.812;6.620;2023-04-01T05:13:34;2.17;;;0.90;;
12367;SDS011;6248;49.812;6.620;2023-04-01T05:16:01;1.27;;;0.57;;
12367;SDS011;6248;49.812;6.620;2023-04-01T05:18:28;1.23;;;0.63;;
12367;SDS011;6248;49.812;6.620;2023-04-01T05:20:57;1.50;;;0.50;;
12367;SDS011;6248;49.812;6.620;2023-04-01T05:23:24;0.93;;;0.50;;
12367;SDS011;6248;49.812;6.620;2023-04-01T05:25:51;1.73;;;0.80;;
12367;SDS011;6248;49.812;6.620;2023-04-01T05:28:18;2.00;;;0.73;;
12367;SDS011;6248;49.812;6.620;2023-04-01T05:30:46;2.03;;;0.70;;
12367;SDS011;6248;49.812;6.620;2023-04-01T05:33:13;1.90;;;0.60;;
12367;SDS011;6248;49.812;6.620;2023-04-01T05:35:40;1.83;;;0.87;;
12367;SDS011;6248;49.812;6.620;2023-04-01T05:38:08;1.60;;;0.70;;
12367;SDS011;6248;49.812;6.620;2023-04-01T05:40:36;1.37;;;0.90;;
12367;SDS011;6248;49.812;6.620;2023-04-01T05:43:03;1.27;;;0.77;;
12367;SDS011;6248;49.812;6.620;2023-04-01T05:45:30;0.63;;;0.63;;
12367;SDS011;6248;49.812;6.620;2023-04-01T05:47:58;1.20;;;0.67;;
12367;SDS011;6248;49.812;6.620;2023-04-01T05:50:25;0.93;;;0.80;;
12367;SDS011;6248;49.812;6.620;2023-04-01T05:52:52;0.97;;;0.53;;
12367;SDS011;6248;49.812;6.620;2023-04-01T05:55:21;1.60;;;0.70;;
12367;SDS011;6248;49.812;6.620;2023-04-01T05:57:48;2.67;;;0.70;;
12367;SDS011;6248;49.812;6.620;2023-04-01T06:00:15;0.90;;;0.60;;
12367;SDS011;6248;49.812;6.620;2023-04-01T06:02:44;1.47;;;0.70;;
12367;SDS011;6248;49.812;6.620;2023-04-01T06:05:13;2.07;;;0.73;;
12367;SDS011;6248;49.812;6.620;2023-04-01T06:07:41;1.87;;;1.50;;
12367;SDS011;6248;49.812;6.620;2023-04-01T06:10:10;1.97;;;1.10;;
12367;SDS011;6248;49.812;6.620;2023-04-01T06:12:41;2.27;;;1.60;;
12367;SDS011;6248;49.812;6.620;2023-04-01T06:15:20;1.43;;;1.00;;
12367;SDS011;6248;49.812;6.620;2023-04-01T06:20:36;3.17;;;1.57;;
12367;SDS011;6248;49.812;6.620;2023-04-01T06:23:08;1.83;;;0.83;;
12367;SDS011;6248;49.812;6.620;2023-04-01T06:25:45;4.83;;;1.90;;
12367;SDS011;6248;49.812;6.620;2023-04-01T06:28:27;3.70;;;2.37;;
12367;SDS011;6248;49.812;6.620;2023-04-01T06:30:57;2.90;;;2.30;;
12367;SDS011;6248;49.812;6.620;2023-04-01T06:33:35;3.73;;;2.90;;
12367;SDS011;6248;49.812;6.620;2023-04-01T06:38:55;4.53;;;2.97;;
12367;SDS011;6248;49.812;6.620;2023-04-01T06:44:16;2.27;;;2.00;;
12367;SDS011;6248;49.812;6.620;2023-04-01T06:46:44;2.47;;;2.20;;
12367;SDS011;6248;49.812;6.620;2023-04-01T06:49:18;1.67;;;1.50;;
12367;SDS011;6248;49.812;6.620;2023-04-01T06:51:47;3.63;;;2.40;;
12367;SDS011;6248;49.812;6.620;2023-04-01T06:54:20;2.27;;;1.93;;
12367;SDS011;6248;49.812;6.620;2023-04-01T06:56:49;5.47;;;3.40;;
12367;SDS011;6248;49.812;6.620;2023-04-01T06:59:19;1.87;;;1.63;;
12367;SDS011;6248;49.812;6.620;2023-04-01T07:01:47;1.17;;;1.10;;
12367;SDS011;6248;49.812;6.620;2023-04-01T07:04:17;1.60;;;0.90;;
12367;SDS011;6248;49.812;6.620;2023-04-01T07:06:47;1.53;;;1.10;;
12367;SDS011;6248;49.812;6.620;2023-04-01T07:09:16;1.30;;;0.80;;
12367;SDS011;6248;49.812;6.620;2023-04-01T07:11:44;2.07;;;1.27;;
12367;SDS011;6248;49.812;6.620;2023-04-01T07:14:13;0.93;;;0.93;;
12367;SDS011;6248;49.812;6.620;2023-04-01T07:16:47;1.03;;;0.80;;
12367;SDS011;6248;49.812;6.620;2023-04-01T07:19:16;1.17;;;0.80;;
12367;SDS011;6248;49.812;6.620;2023-04-01T07:21:47;0.83;;;0.50;;
12367;SDS011;6248;49.812;6.620;2023-04-01T07:24:16;2.60;;;1.50;;
12367;SDS011;6248;49.812;6.620;2023-04-01T07:26:47;1.00;;;0.80;;
12367;SDS011;6248;49.812;6.620;2023-04-01T07:29:16;0.90;;;0.70;;
12367;SDS011;6248;49.812;6.620;2023-04-01T07:31:48;0.80;;;0.80;;
12367;SDS011;6248;49.812;6.620;2023-04-01T07:34:18;1.03;;;0.73;;
12367;SDS011;6248;49.812;6.620;2023-04-01T07:36:47;1.07;;;0.63;;
12367;SDS011;6248;49.812;6.620;2023-04-01T07:39:19;0.93;;;0.83;;
12367;SDS011;6248;49.812;6.620;2023-04-01T07:41:51;0.53;;;0.50;;
12367;SDS011;6248;49.812;6.620;2023-04-01T07:44:20;2.43;;;0.33;;
12367;SDS011;6248;49.812;6.620;2023-04-01T07:46:53;0.30;;;0.30;;
12367;SDS011;6248;49.812;6.620;2023-04-01T07:49:25;1.03;;;0.40;;
12367;SDS011;6248;49.812;6.620;2023-04-01T07:51:56;0.37;;;0.20;;
12367;SDS011;6248;49.812;6.620;2023-04-01T07:54:28;1.17;;;0.70;;
12367;SDS011;6248;49.812;6.620;2023-04-01T07:56:57;0.50;;;0.50;;
12367;SDS011;6248;49.812;6.620;2023-04-01T07:59:29;0.40;;;0.40;;
12367;SDS011;6248;49.812;6.620;2023-04-01T08:02:03;0.57;;;0.30;;
12367;SDS011;6248;49.812;6.620;2023-04-01T08:04:36;0.40;;;0.40;;
12367;SDS011;6248;49.812;6.620;2023-04-01T08:07:09;0.30;;;0.30;;
12367;SDS011;6248;49.812;6.620;2023-04-01T08:09:40;0.40;;;0.40;;
12367;SDS011;6248;49.812;6.620;2023-04-01T08:12:13;0.27;;;0.27;;
12367;SDS011;6248;49.812;6.620;2023-04-01T08:14:46;0.20;;;0.20;;
12367;SDS011;6248;49.812;6.620;2023-04-01T08:17:18;0.33;;;0.30;;
12367;SDS011;6248;49.812;6.620;2023-04-01T08:19:51;0.40;;;0.40;;
12367;SDS011;6248;49.812;6.620;2023-04-01T08:22:23;0.57;;;0.57;;
12367;SDS011;6248;49.812;6.620;2023-04-01T08:24:52;0.40;;;0.30;;
12367;SDS011;6248;49.812;6.620;2023-04-01T08:27:23;0.47;;;0.47;;
12367;SDS011;6248;49.812;6.620;2023-04-01T08:29:53;0.80;;;0.63;;
12367;SDS011;6248;49.812;6.620;2023-04-01T08:32:25;0.73;;;0.73;;
12367;SDS011;6248;49.812;6.620;2023-04-01T08:34:55;0.63;;;0.40;;
12367;SDS011;6248;49.812;6.620;2023-04-01T08:37:25;0.20;;;0.20;;
12367;SDS011;6248;49.812;6.620;2023-04-01T08:39:56;1.23;;;1.13;;
12367;SDS011;6248;49.812;6.620;2023-04-01T08:45:10;0.30;;;0.30;;
12367;SDS011;6248;49.812;6.620;2023-04-01T08:47:47;0.40;;;0.40;;
12367;SDS011;6248;49.812;6.620;2023-04-01T08:50:21;2.90;;;0.47;;
12367;SDS011;6248;49.812;6.620;2023-04-01T08:52:51;0.27;;;0.27;;
12367;SDS011;6248;49.812;6.620;2023-04-01T08:55:25;0.50;;;0.40;;
12367;SDS011;6248;49.812;6.620;2023-04-01T09:00:41;0.40;;;0.40;;
12367;SDS011;6248;49.812;6.620;2023-04-01T09:03:15;0.47;;;0.47;;
12367;SDS011;6248;49.812;6.620;2023-04-01T09:05:53;0.30;;;0.30;;
12367;SDS011;6248;49.812;6.620;2023-04-01T09:08:31;0.60;;;0.60;;
12367;SDS011;6248;49.812;6.620;2023-04-01T09:11:04;0.40;;;0.40;;
12367;SDS011;6248;49.812;6.620;2023-04-01T09:13:39;0.40;;;0.40;;
12367;SDS011;6248;49.812;6.620;2023-04-01T09:16:22;0.93;;;0.70;;
12367;SDS011;6248;49.812;6.620;2023-04-01T09:21:47;0.83;;;0.60;;
12367;SDS011;6248;49.812;6.620;2023-04-01T09:24:21;0.33;;;0.33;;
12367;SDS011;6248;49.812;6.620;2023-04-01T09:26:58;1.10;;;0.80;;
12367;SDS011;6248;49.812;6.620;2023-04-01T09:32:14;3.00;;;0.90;;
12367;SDS011;6248;49.812;6.620;2023-04-01T09:34:52;0.40;;;0.40;;
12367;SDS011;6248;49.812;6.620;2023-04-01T09:37:25;0.43;;;0.43;;
12367;SDS011;6248;49.812;6.620;2023-04-01T09:40:02;1.40;;;0.70;;
12367;SDS011;6248;49.812;6.620;2023-04-01T09:42:42;0.23;;;0.23;;
12367;SDS011;6248;49.812;6.620;2023-04-01T09:45:14;0.10;;;0.10;;
12367;SDS011;6248;49.812;6.620;2023-04-01T09:47:50;0.30;;;0.30;;
12367;SDS011;6248;49.812;6.620;2023-04-01T09:53:10;0.27;;;0.27;;
12367;SDS011;6248;49.812;6.620;2023-04-01T09:55:48;0.20;;;0.20;;
12367;SDS011;6248;49.812;6.620;2023-04-01T09:58:32;0.30;;;0.20;;
12367;SDS011;6248;49.812;6.620;2023-04-01T10:03:54;0.50;;;0.50;;
12367;SDS011;6248;49.812;6.620;2023-04-01T10:09:14;0.30;;;0.30;;
12367;SDS011;6248;49.812;6.620;2023-04-01T10:11:56;1.33;;;0.43;;
12367;SDS011;6248;49.812;6.620;2023-04-01T10:14:37;0.50;;;0.50;;
12367;SDS011;6248;49.812;6.620;2023-04-01T10:20:01;0.30;;;0.30;;
12367;SDS011;6248;49.812;6.620;2023-04-01T10:25:38;0.60;;;0.60;;
12367;SDS011;6248;49.812;6.620;2023-04-01T10:28:26;0.40;;;0.20;;
12367;SDS011;6248;49.812;6.620;2023-04-01T10:31:14;0.60;;;0.60;;
12367;SDS011;6248;49.812;6.620;2023-04-01T10:34:03;0.40;;;0.40;;
12367;SDS011;6248;49.812;6.620;2023-04-01T10:36:43;0.20;;;0.20;;
12367;SDS011;6248;49.812;6.620;2023-04-01T10:39:20;0.63;;;0.50;;
12367;SDS011;6248;49.812;6.620;2023-04-01T10:42:04;1.33;;;0.90;;
12367;SDS011;6248;49.812;6.620;2023-04-01T10:44:56;0.83;;;0.70;;
12367;SDS011;6248;49.812;6.620;2023-04-01T10:50:19;0.70;;;0.70;;
12367;SDS011;6248;49.812;6.620;2023-04-01T10:58:36;0.53;;;0.53;;
12367;SDS011;6248;49.812;6.620;2023-04-01T11:01:13;0.47;;;0.47;;
12367;SDS011;6248;49.812;6.620;2023-04-01T11:12:19;0.90;;;0.57;;
12367;SDS011;6248;49.812;6.620;2023-04-01T11:15:02;0.50;;;0.50;;
12367;SDS011;6248;49.812;6.620;2023-04-01T11:23:03;0.40;;;0.40;;
12367;SDS011;6248;49.812;6.620;2023-04-01T11:25:39;1.37;;;0.53;;
12367;SDS011;6248;49.812;6.620;2023-04-01T11:28:15;5.27;;;0.60;;
12367;SDS011;6248;49.812;6.620;2023-04-01T11:30:55;0.57;;;0.50;;
12367;SDS011;6248;49.812;6.620;2023-04-01T11:33:26;2.30;;;0.30;;
12367;SDS011;6248;49.812;6.620;2023-04-01T11:35:57;0.60;;;0.30;;
12367;SDS011;6248;49.812;6.620;2023-04-01T11:38:29;0.87;;;0.87;;
12367;SDS011;6248;49.812;6.620;2023-04-01T11:41:01;0.60;;;0.60;;
12367;SDS011;6248;49.812;6.620;2023-04-01T11:43:32;0.67;;;0.67;;
12367;SDS011;6248;49.812;6.620;2023-04-01T11:46:03;0.30;;;0.30;;
12367;SDS011;6248;49.812;6.620;2023-04-01T11:48:40;0.77;;;0.40;;
12367;SDS011;6248;49.812;6.620;2023-04-01T11:51:16;1.60;;;0.50;;
12367;SDS011;6248;49.812;6.620;2023-04-01T11:53:50;2.97;;;0.50;;
12367;SDS011;6248;49.812;6.620;2023-04-01T11:56:21;0.40;;;0.40;;
12367;SDS011;6248;49.812;6.620;2023-04-01T11:59:14;0.60;;;0.47;;
12367;SDS011;6248;49.812;6.620;2023-04-01T12:01:54;0.57;;;0.50;;
12367;SDS011;6248;49.812;6.620;2023-04-01T12:07:25;0.10;;;0.10;;
12367;SDS011;6248;49.812;6.620;2023-04-01T12:09:56;0.10;;;0.10;;
12367;SDS011;6248;49.812;6.620;2023-04-01T12:12:29;0.27;;;0.23;;
12367;SDS011;6248;49.812;6.620;2023-04-01T12:15:02;0.00;;;0.00;;
12367;SDS011;6248;49.812;6.620;2023-04-01T12:17:34;0.33;;;0.30;;
12367;SDS011;6248;49.812;6.620;2023-04-01T12:20:13;0.20;;;0.20;;
12367;SDS011;6248;49.812;6.620;2023-04-01T12:22:49;0.10;;;0.10;;
12367;SDS011;6248;49.812;6.620;2023-04-01T12:25:22;0.10;;;0.10;;
12367;SDS011;6248;49.812;6.620;2023-04-01T12:27:54;0.47;;;0.30;;
12367;SDS011;6248;49.812;6.620;2023-04-01T12:30:27;0.37;;;0.30;;
12367;SDS011;6248;49.812;6.620;2023-04-01T12:33:02;0.30;;;0.20;;
12367;SDS011;6248;49.812;6.620;2023-04-01T12:35:32;0.97;;;0.40;;
12367;SDS011;6248;49.812;6.620;2023-04-01T12:38:07;0.50;;;0.50;;
12367;SDS011;6248;49.812;6.620;2023-04-01T12:40:48;0.70;;;0.70;;
12367;SDS011;6248;49.812;6.620;2023-04-01T12:43:21;0.53;;;0.50;;
12367;SDS011;6248;49.812;6.620;2023-04-01T12:45:54;0.10;;;0.10;;
12367;SDS011;6248;49.812;6.620;2023-04-01T12:48:29;1.00;;;0.70;;
12367;SDS011;6248;49.812;6.620;2023-04-01T12:51:16;0.27;;;0.20;;
12367;SDS011;6248;49.812;6.620;2023-04-01T12:54:03;0.30;;;0.30;;
12367;SDS011;6248;49.812;6.620;2023-04-01T12:56:38;0.20;;;0.20;;
12367;SDS011;6248;49.812;6.620;2023-04-01T12:59:22;0.50;;;0.33;;
12367;SDS011;6248;49.812;6.620;2023-04-01T13:01:54;0.50;;;0.50;;
12367;SDS011;6248;49.812;6.620;2023-04-01T13:04:33;0.30;;;0.30;;
12367;SDS011;6248;49.812;6.620;2023-04-01T13:07:09;1.17;;;1.10;;
12367;SDS011;6248;49.812;6.620;2023-04-01T13:09:40;0.33;;;0.33;;
12367;SDS011;6248;49.812;6.620;2023-04-01T13:12:29;0.30;;;0.30;;
12367;SDS011;6248;49.812;6.620;2023-04-01T13:15:01;0.63;;;0.57;;
12367;SDS011;6248;49.812;6.620;2023-04-01T13:17:34;0.60;;;0.60;;
12367;SDS011;6248;49.812;6.620;2023-04-01T13:20:06;0.50;;;0.50;;
12367;SDS011;6248;49.812;6.620;2023-04-01T13:22:45;0.70;;;0.70;;
12367;SDS011;6248;49.812;6.620;2023-04-01T13:25:17;0.50;;;0.50;;
12367;SDS011;6248;49.812;6.620;2023-04-01T13:27:50;0.70;;;0.70;;
12367;SDS011;6248;49.812;6.620;2023-04-01T13:30:22;0.50;;;0.50;;
12367;SDS011;6248;49.812;6.620;2023-04-01T13:32:54;0.77;;;0.70;;
12367;SDS011;6248;49.812;6.620;2023-04-01T13:35:28;0.30;;;0.30;;
12367;SDS011;6248;49.812;6.620;2023-04-01T13:40:43;0.67;;;0.30;;
12367;SDS011;6248;49.812;6.620;2023-04-01T13:43:14;2.30;;;1.30;;
12367;SDS011;6248;49.812;6.620;2023-04-01T13:45:46;0.30;;;0.30;;
12367;SDS011;6248;49.812;6.620;2023-04-01T13:48:26;0.20;;;0.20;;
12367;SDS011;6248;49.812;6.620;2023-04-01T13:51:08;0.70;;;0.30;;
12367;SDS011;6248;49.812;6.620;2023-04-01T13:56:29;0.40;;;0.30;;
12367;SDS011;6248;49.812;6.620;2023-04-01T13:59:05;0.63;;;0.40;;
12367;SDS011;6248;49.812;6.620;2023-04-01T14:01:36;0.37;;;0.37;;
12367;SDS011;6248;49.812;6.620;2023-04-01T14:06:51;0.93;;;0.20;;
12367;SDS011;6248;49.812;6.620;2023-04-01T14:09:32;0.60;;;0.43;;
12367;SDS011;6248;49.812;6.620;2023-04-01T14:12:04;0.50;;;0.50;;
12367;SDS011;6248;49.812;6.620;2023-04-01T14:14:34;0.40;;;0.40;;
12367;SDS011;6248;49.812;6.620;2023-04-01T14:22:38;0.60;;;0.30;;
12367;SDS011;6248;49.812;6.620;2023-04-01T14:25:25;0.50;;;0.40;;
12367;SDS011;6248;49.812;6.620;2023-04-01T14:27:59;0.30;;;0.30;;
12367;SDS011;6248;49.812;6.620;2023-04-01T14:30:34;0.33;;;0.33;;
12367;SDS011;6248;49.812;6.620;2023-04-01T14:33:05;0.20;;;0.20;;
12367;SDS011;6248;49.812;6.620;2023-04-01T14:35:37;0.37;;;0.10;;
12367;SDS011;6248;49.812;6.620;2023-04-01T14:40:56;0.97;;;0.43;;
12367;SDS011;6248;49.812;6.620;2023-04-01T14:43:43;0.23;;;0.23;;
12367;SDS011;6248;49.812;6.620;2023-04-01T14:46:23;0.50;;;0.50;;
12367;SDS011;6248;49.812;6.620;2023-04-01T14:48:53;0.50;;;0.50;;
12367;SDS011;6248;49.812;6.620;2023-04-01T14:51:23;0.67;;;0.40;;
12367;SDS011;6248;49.812;6.620;2023-04-01T14:53:58;0.20;;;0.20;;
12367;SDS011;6248;49.812;6.620;2023-04-01T14:59:16;0.37;;;0.30;;
12367;SDS011;6248;49.812;6.620;2023-04-01T15:01:47;0.40;;;0.40;;
12367;SDS011;6248;49.812;6.620;2023-04-01T15:04:37;0.47;;;0.47;;
12367;SDS011;6248;49.812;6.620;2023-04-01T15:09:54;0.93;;;0.40;;
12367;SDS011;6248;49.812;6.620;2023-04-01T15:12:26;0.37;;;0.37;;
12367;SDS011;6248;49.812;6.620;2023-04-01T15:15:16;0.67;;;0.50;;
12367;SDS011;6248;49.812;6.620;2023-04-01T15:17:53;0.40;;;0.40;;
12367;SDS011;6248;49.812;6.620;2023-04-01T15:23:14;0.83;;;0.30;;
12367;SDS011;6248;49.812;6.620;2023-04-01T15:25:45;0.83;;;0.57;;
12367;SDS011;6248;49.812;6.620;2023-04-01T15:28:18;0.93;;;0.63;;
12367;SDS011;6248;49.812;6.620;2023-04-01T15:30:52;0.30;;;0.30;;
12367;SDS011;6248;49.812;6.620;2023-04-01T15:33:24;0.50;;;0.50;;
12367;SDS011;6248;49.812;6.620;2023-04-01T15:36:00;1.70;;;0.80;;
12367;SDS011;6248;49.812;6.620;2023-04-01T15:38:31;0.60;;;0.60;;
12367;SDS011;6248;49.812;6.620;2023-04-01T15:41:02;0.60;;;0.60;;
12367;SDS011;6248;49.812;6.620;2023-04-01T15:43:32;0.90;;;0.90;;
12367;SDS011;6248;49.812;6.620;2023-04-01T15:46:12;1.50;;;1.40;;
12367;SDS011;6248;49.812;6.620;2023-04-01T15:48:46;1.27;;;1.07;;
12367;SDS011;6248;49.812;6.620;2023-04-01T15:51:19;2.83;;;1.27;;
12367;SDS011;6248;49.812;6.620;2023-04-01T15:53:54;3.07;;;1.50;;
12367;SDS011;6248;49.812;6.620;2023-04-01T15:56:36;1.60;;;1.07;;
12367;SDS011;6248;49.812;6.620;2023-04-01T15:59:13;0.60;;;0.60;;
12367;SDS011;6248;49.812;6.620;2023-04-01T16:01:46;0.80;;;0.80;;
12367;SDS011;6248;49.812;6.620;2023-04-01T16:04:25;0.70;;;0.70;;
12367;SDS011;6248;49.812;6.620;2023-04-01T16:07:10;1.20;;;0.63;;
12367;SDS011;6248;49.812;6.620;2023-04-01T16:09:48;0.70;;;0.70;;
12367;SDS011;6248;49.812;6.620;2023-04-01T16:12:18;1.33;;;0.83;;
12367;SDS011;6248;49.812;6.620;2023-04-01T16:14:51;1.30;;;1.13;;
12367;SDS011;6248;49.812;6.620;2023-04-01T16:17:28;1.20;;;1.10;;
12367;SDS011;6248;49.812;6.620;2023-04-01T16:19:59;0.80;;;0.80;;
12367;SDS011;6248;49.812;6.620;2023-04-01T16:22:30;1.80;;;1.70;;
12367;SDS011;6248;49.812;6.620;2023-04-01T16:25:01;1.50;;;1.27;;
12367;SDS011;6248;49.812;6.620;2023-04-01T16:27:33;1.60;;;1.03;;
12367;SDS011;6248;49.812;6.620;2023-04-01T16:30:03;1.70;;;1.00;;
12367;SDS011;6248;49.812;6.620;2023-04-01T16:32:46;1.50;;;1.00;;
12367;SDS011;6248;49.812;6.620;2023-04-01T16:35:21;0.80;;;0.80;;
12367;SDS011;6248;49.812;6.620;2023-04-01T16:37:50;0.60;;;0.60;;
12367;SDS011;6248;49.812;6.620;2023-04-01T16:40:23;1.10;;;1.00;;
12367;SDS011;6248;49.812;6.620;2023-04-01T16:42:51;1.53;;;1.20;;
12367;SDS011;6248;49.812;6.620;2023-04-01T16:45:21;0.80;;;0.80;;
12367;SDS011;6248;49.812;6.620;2023-04-01T16:47:53;1.20;;;1.10;;
12367;SDS011;6248;49.812;6.620;2023-04-01T16:50:22;1.67;;;1.40;;
12367;SDS011;6248;49.812;6.620;2023-04-01T16:52:58;1.10;;;1.00;;
12367;SDS011;6248;49.812;6.620;2023-04-01T16:55:34;1.50;;;1.40;;